Time;durP1;ratioP1;P1;durP2;ratioP2;P2;SDS_P1;SDS_P2;PMS_P1;PMS_P2;Temp;Humidity;BMP_temperature;BMP_pressure;BME280_temperature;BME280_humidity;BME280_pressure;Samples;Min_cycle;Max_cycle;Signal;HPM_P1;HPM_P2
2023/02/10 00:01:12;;;;;;;67.03;52.10;;;27.10;92.80;;;;;;1869875;76;21182;-85
2023/02/10 00:03:43;;;;;;;63.68;51.35;;;27.10;92.70;;;;;;1845057;76;21198;-85
2023/02/10 00:06:15;;;;;;;63.38;51.77;;;27.10;92.80;;;;;;1839330;77;21098;-84
2023/02/10 00:08:51;;;;;;;61.77;51.25;;;27.10;92.60;;;;;;1837120;77;21157;-83
2023/02/10 00:14:11;;;;;;;69.65;51.90;;;27.10;92.70;;;;;;1840893;76;21664;-85
2023/02/10 00:16:42;;;;;;;61.28;50.08;;;27.10;92.70;;;;;;1805309;78;21171;-83
2023/02/10 00:19:13;;;;;;;60.12;49.75;;;27.10;92.70;;;;;;1799466;79;21159;-85
2023/02/10 00:21:43;;;;;;;62.62;52.90;;;27.00;92.60;;;;;;1868750;77;21099;-84
2023/02/10 00:24:14;;;;;;;65.00;52.95;;;27.00;93.10;;;;;;1841466;77;21156;-85
2023/02/10 00:26:45;;;;;;;63.73;52.62;;;27.10;92.80;;;;;;1837243;78;21098;-84
2023/02/10 00:29:17;;;;;;;66.95;52.27;;;27.00;92.80;;;;;;1847060;76;21143;-82
2023/02/10 00:31:47;;;;;;;61.88;51.88;;;27.00;92.80;;;;;;1821197;78;21081;-82
2023/02/10 00:34:19;;;;;;;63.48;52.75;;;27.10;92.80;;;;;;1848534;76;21076;-84
2023/02/10 00:36:51;;;;;;;64.85;51.83;;;27.10;93.00;;;;;;1837391;78;21074;-83
2023/02/10 00:39:22;;;;;;;65.45;53.85;;;27.10;93.10;;;;;;1837509;77;21146;-84
2023/02/10 00:41:52;;;;;;;62.62;51.60;;;27.10;93.10;;;;;;1837143;78;21101;-83
2023/02/10 00:44:23;;;;;;;62.10;52.78;;;27.10;93.20;;;;;;1794261;78;21554;-84
2023/02/10 00:46:54;;;;;;;69.55;53.35;;;27.20;93.20;;;;;;1809823;79;21597;-84
2023/02/10 00:49:25;;;;;;;72.65;52.85;;;27.20;93.10;;;;;;1810008;78;21095;-84
2023/02/10 00:51:57;;;;;;;66.37;53.70;;;27.20;93.10;;;;;;1809932;79;21638;-85
2023/02/10 00:54:28;;;;;;;66.02;54.60;;;27.20;93.20;;;;;;1834432;78;21605;-84
2023/02/10 00:56:58;;;;;;;67.62;53.40;;;27.30;93.30;;;;;;1849082;76;21496;-80
2023/02/10 00:59:30;;;;;;;65.85;53.85;;;27.30;93.30;;;;;;1858925;76;21531;-76
2023/02/10 01:02:01;;;;;;;66.82;53.65;;;27.30;93.40;;;;;;1827982;76;21657;-78
2023/02/10 01:04:32;;;;;;;69.25;55.00;;;27.30;93.30;;;;;;1840787;76;21650;-74
2023/02/10 01:07:03;;;;;;;65.37;54.88;;;27.30;93.30;;;;;;1860690;75;21088;-74
2023/02/10 01:09:34;;;;;;;86.57;57.98;;;27.30;93.20;;;;;;1872276;75;21145;-74
2023/02/10 01:12:06;;;;;;;72.85;56.55;;;27.30;93.30;;;;;;1877298;75;21076;-77
2023/02/10 01:14:38;;;;;;;76.65;59.98;;;27.30;93.40;;;;;;1867221;75;21272;-79
2023/02/10 01:17:10;;;;;;;76.53;60.10;;;27.40;93.20;;;;;;1876332;76;21593;-77
2023/02/10 01:19:42;;;;;;;71.20;57.88;;;27.30;93.20;;;;;;1876858;75;21564;-76
2023/02/10 01:22:15;;;;;;;73.97;60.28;;;27.40;93.10;;;;;;1860930;75;21157;-76
2023/02/10 01:24:47;;;;;;;75.80;62.43;;;27.40;93.20;;;;;;1830343;76;21121;-78
2023/02/10 01:27:19;;;;;;;77.05;62.23;;;27.40;93.20;;;;;;1848112;77;21511;-77
2023/02/10 01:29:52;;;;;;;78.90;60.30;;;27.50;93.10;;;;;;1865221;75;21131;-78
2023/02/10 01:32:23;;;;;;;68.75;57.62;;;27.50;93.10;;;;;;1867334;75;21096;-77
2023/02/10 01:34:54;;;;;;;70.20;58.90;;;27.50;93.10;;;;;;1866211;75;21130;-77
2023/02/10 01:37:25;;;;;;;64.80;57.48;;;27.50;93.10;;;;;;1836589;77;21148;-80
2023/02/10 01:39:56;;;;;;;76.35;57.10;;;27.40;93.00;;;;;;1849615;77;21164;-76
2023/02/10 01:42:27;;;;;;;74.55;58.13;;;27.40;92.90;;;;;;1857311;76;21201;-75
2023/02/10 01:45:17;;;;;;;65.78;57.27;;;27.40;93.00;;;;;;1809621;78;21771;-78
2023/02/10 01:47:53;;;;;;;74.12;61.00;;;27.40;93.10;;;;;;1828295;77;21108;-77
2023/02/10 01:50:27;;;;;;;70.17;59.48;;;27.40;93.10;;;;;;1828241;77;21144;-76
2023/02/10 01:53:04;;;;;;;72.40;59.42;;;27.40;93.00;;;;;;1828658;76;21769;-75
2023/02/10 01:55:41;;;;;;;69.67;58.78;;;27.50;93.00;;;;;;1853407;76;21079;-76
2023/02/10 01:58:15;;;;;;;73.42;61.83;;;27.50;92.90;;;;;;1862670;75;21095;-76
2023/02/10 02:00:47;;;;;;;79.20;62.67;;;27.60;92.90;;;;;;1864741;75;21625;-75
2023/02/10 02:03:18;;;;;;;74.55;61.60;;;27.60;92.90;;;;;;1843477;76;21535;-76
2023/02/10 02:05:49;;;;;;;72.97;62.13;;;27.70;92.90;;;;;;1859304;77;21055;-76
2023/02/10 02:08:25;;;;;;;71.28;60.60;;;27.60;92.80;;;;;;1867003;77;21158;-77
2023/02/10 02:11:05;;;;;;;74.22;60.08;;;27.70;92.90;;;;;;1850883;75;21067;-77
2023/02/10 02:13:56;;;;;;;75.03;59.53;;;27.70;92.70;;;;;;1838409;77;21543;-76
2023/02/10 02:16:33;;;;;;;76.28;61.02;;;27.80;92.60;;;;;;1846569;77;21506;-76
2023/02/10 02:19:27;;;;;;;71.75;57.65;;;27.80;92.40;;;;;;1842083;75;21181;-77
2023/02/10 02:22:36;;;;;;;66.97;59.45;;;27.90;92.30;;;;;;1833687;76;21141;-76
2023/02/10 02:25:18;;;;;;;72.72;58.42;;;28.00;92.10;;;;;;1836687;76;21157;-77
2023/02/10 02:27:54;;;;;;;69.62;56.73;;;28.10;92.50;;;;;;1850503;75;21639;-76
2023/02/10 02:30:32;;;;;;;;;;;28.20;91.90;;;;;;1823661;76;21150;-76
2023/02/10 02:33:05;;;;;;;69.05;55.88;;;28.30;91.80;;;;;;1848500;75;20134;-76
2023/02/10 02:35:41;;;;;;;67.35;56.77;;;28.30;91.50;;;;;;1848325;76;21156;-75
2023/02/10 02:38:13;;;;;;;70.57;57.53;;;28.40;91.30;;;;;;1858308;75;21683;-76
2023/02/10 02:40:47;;;;;;;70.62;55.67;;;28.60;91.30;;;;;;1845154;77;21613;-78
2023/02/10 02:43:18;;;;;;;67.20;54.83;;;28.60;91.10;;;;;;1847771;76;21099;-76
2023/02/10 02:45:58;;;;;;;64.37;54.40;;;28.70;91.00;;;;;;1856382;76;21157;-74
2023/02/10 02:48:48;;;;;;;68.17;54.30;;;28.80;90.70;;;;;;1858803;76;21609;-75
2023/02/10 02:51:39;;;;;;;72.53;57.13;;;28.90;90.60;;;;;;1826184;75;21163;-75
2023/02/10 02:54:19;;;;;;;70.30;59.20;;;28.90;90.70;;;;;;1839587;75;21197;-74
2023/02/10 02:57:13;;;;;;;75.95;59.23;;;29.00;90.30;;;;;;1853697;76;21610;-77
2023/02/10 02:59:47;;;;;;;67.50;57.78;;;29.10;90.40;;;;;;1853628;77;21071;-75
2023/02/10 03:02:20;;;;;;;74.42;59.58;;;29.10;90.40;;;;;;1864001;76;21226;-75
2023/02/10 03:04:52;;;;;;;71.75;56.20;;;29.10;90.30;;;;;;1872688;75;21515;-77
2023/02/10 03:07:23;;;;;;;71.80;57.95;;;29.20;90.30;;;;;;1852541;76;21161;-76
2023/02/10 03:09:55;;;;;;;66.33;57.70;;;29.20;90.00;;;;;;1841731;77;21558;-76
2023/02/10 03:12:26;;;;;;;71.42;57.65;;;29.30;89.70;;;;;;1852644;75;21763;-77
2023/02/10 03:14:57;;;;;;;60.08;50.58;;;29.30;89.70;;;;;;1839749;75;21154;-76
2023/02/10 03:17:28;;;;;;;53.02;42.88;;;29.40;89.10;;;;;;1854664;75;21087;-76
2023/02/10 03:19:59;;;;;;;54.15;44.30;;;29.50;87.40;;;;;;1821979;77;21107;-77
2023/02/10 03:22:34;;;;;;;50.58;42.85;;;29.60;86.80;;;;;;1816725;78;21179;-77
2023/02/10 03:25:05;;;;;;;54.00;43.95;;;29.70;86.50;;;;;;1831374;77;21221;-75
2023/02/10 03:27:36;;;;;;;56.25;42.85;;;29.80;86.00;;;;;;1837437;76;21098;-76
2023/02/10 03:30:08;;;;;;;51.23;42.43;;;30.00;86.10;;;;;;1836641;76;21229;-76
2023/02/10 03:32:42;;;;;;;49.63;42.10;;;30.10;85.70;;;;;;1830174;76;21638;-76
2023/02/10 03:35:14;;;;;;;47.65;41.83;;;30.20;85.20;;;;;;1828427;76;21154;-79
2023/02/10 03:37:45;;;;;;;53.38;41.85;;;30.40;85.90;;;;;;1830703;76;21159;-76
2023/02/10 03:40:16;;;;;;;50.88;44.20;;;30.50;84.60;;;;;;1826589;78;21154;-76
2023/02/10 03:42:47;;;;;;;49.50;42.35;;;30.60;84.50;;;;;;1829043;76;21089;-76
2023/02/10 03:45:19;;;;;;;47.33;40.63;;;30.70;83.20;;;;;;1836040;76;21066;-77
2023/02/10 03:47:52;;;;;;;49.42;41.73;;;30.80;82.60;;;;;;1841757;76;21201;-76
2023/02/10 03:50:24;;;;;;;53.33;40.85;;;30.90;82.50;;;;;;1830554;77;21270;-77
2023/02/10 03:52:55;;;;;;;46.85;40.50;;;31.00;82.40;;;;;;1864115;76;21123;-77
2023/02/10 03:55:28;;;;;;;49.10;40.67;;;31.00;82.40;;;;;;1835637;76;21157;-76
2023/02/10 03:58:03;;;;;;;51.27;40.30;;;31.20;83.50;;;;;;1823297;78;21108;-77
2023/02/10 04:00:34;;;;;;;46.28;39.18;;;31.30;82.70;;;;;;1820927;76;21099;-78
2023/02/10 04:03:05;;;;;;;43.40;37.85;;;31.40;82.20;;;;;;1834230;76;21136;-78
2023/02/10 04:05:37;;;;;;;48.42;38.00;;;31.60;81.30;;;;;;1834274;76;21154;-77
2023/02/10 04:08:09;;;;;;;44.53;38.25;;;31.60;80.20;;;;;;1834381;77;21087;-76
2023/02/10 04:10:42;;;;;;;46.00;36.42;;;31.70;80.20;;;;;;1841024;77;21095;-77
2023/02/10 04:13:12;;;;;;;44.20;36.15;;;31.70;78.40;;;;;;1824359;77;21598;-76
2023/02/10 04:15:44;;;;;;;43.13;34.18;;;31.80;77.80;;;;;;1847589;76;21139;-77
2023/02/10 04:18:15;;;;;;;41.55;35.20;;;31.90;76.70;;;;;;1845109;76;21215;-76
2023/02/10 04:20:46;;;;;;;45.95;36.23;;;31.90;77.10;;;;;;1835763;76;21162;-75
2023/02/10 04:23:17;;;;;;;39.55;35.35;;;31.90;77.40;;;;;;1847464;76;21175;-76
2023/02/10 04:25:48;;;;;;;39.03;34.55;;;32.00;77.50;;;;;;1851155;75;21151;-75
2023/02/10 04:28:19;;;;;;;41.83;37.23;;;32.00;76.90;;;;;;1854398;76;21143;-76
2023/02/10 04:30:59;;;;;;;37.30;33.23;;;32.10;77.20;;;;;;1849575;76;21080;-77
2023/02/10 04:33:30;;;;;;;39.05;32.90;;;32.20;77.00;;;;;;1834849;76;21749;-76
2023/02/10 04:36:02;;;;;;;37.40;33.38;;;32.30;76.30;;;;;;1856356;76;21594;-77
2023/02/10 04:38:33;;;;;;;40.03;34.20;;;32.40;75.10;;;;;;1835782;77;21194;-87
2023/02/10 04:41:05;;;;;;;39.70;33.80;;;32.40;75.10;;;;;;1843460;76;21169;-86
2023/02/10 04:43:41;;;;;;;36.60;30.97;;;32.40;75.00;;;;;;1834254;76;21202;-86
2023/02/10 04:46:14;;;;;;;37.20;31.27;;;32.50;75.40;;;;;;1859814;76;21222;-85
2023/02/10 04:48:45;;;;;;;36.13;31.95;;;32.60;74.20;;;;;;1837059;76;21210;-86
2023/02/10 04:51:16;;;;;;;39.55;31.62;;;32.70;73.60;;;;;;1837185;76;21153;-85
2023/02/10 04:53:50;;;;;;;39.75;31.42;;;32.80;73.70;;;;;;1849288;76;21141;-86
2023/02/10 04:56:22;;;;;;;37.55;30.77;;;32.80;73.80;;;;;;1829907;75;21140;-85
2023/02/10 04:58:53;;;;;;;34.98;30.40;;;32.80;73.20;;;;;;1862793;76;21585;-86
2023/02/10 05:01:23;;;;;;;34.05;28.62;;;32.80;72.70;;;;;;1841447;77;21263;-85
2023/02/10 05:03:54;;;;;;;31.48;24.85;;;32.70;73.40;;;;;;1870463;76;21088;-85
2023/02/10 05:06:25;;;;;;;30.50;24.18;;;32.60;71.70;;;;;;1846230;76;21613;-86
2023/02/10 05:08:56;;;;;;;30.80;23.87;;;32.40;71.90;;;;;;1856635;76;21075;-85
2023/02/10 05:11:27;;;;;;;28.30;22.27;;;32.40;72.00;;;;;;1873185;76;21096;-87
2023/02/10 05:13:58;;;;;;;24.60;20.02;;;32.30;71.20;;;;;;1833625;77;21126;-86
2023/02/10 05:16:29;;;;;;;22.37;20.08;;;32.20;71.40;;;;;;1845611;76;21127;-85
2023/02/10 05:19:00;;;;;;;21.55;19.17;;;32.20;70.10;;;;;;1841037;76;21155;-85
2023/02/10 05:21:35;;;;;;;25.10;19.57;;;32.30;69.80;;;;;;1834241;76;21249;-76
2023/02/10 05:24:03;;;;;;;21.77;18.62;;;32.40;68.60;;;;;;1825565;76;21170;-79
2023/02/10 05:26:39;;;;;;;22.20;19.50;;;32.70;68.90;;;;;;1831969;76;21121;-79
2023/02/10 05:29:13;;;;;;;27.65;20.43;;;32.80;67.50;;;;;;1795171;78;21096;-77
2023/02/10 05:31:44;;;;;;;24.55;21.25;;;33.00;67.90;;;;;;1792150;78;21580;-79
2023/02/10 05:34:15;;;;;;;22.95;20.43;;;33.10;68.00;;;;;;1798235;78;21235;-77
2023/02/10 05:36:46;;;;;;;23.52;20.97;;;33.20;67.80;;;;;;1797614;77;21181;-77
2023/02/10 05:39:23;;;;;;;26.35;21.48;;;33.20;67.10;;;;;;1803685;78;21211;-77
2023/02/10 05:41:57;;;;;;;24.80;21.42;;;33.10;67.30;;;;;;1793619;78;21213;-77
2023/02/10 05:44:29;;;;;;;24.32;21.73;;;33.20;67.40;;;;;;1799179;78;21220;-76
2023/02/10 05:47:00;;;;;;;26.68;22.65;;;33.30;67.10;;;;;;1799779;78;21144;-76
2023/02/10 05:49:32;;;;;;;23.70;21.25;;;33.20;67.60;;;;;;1793822;78;21114;-76
2023/02/10 05:52:03;;;;;;;23.20;20.77;;;33.20;67.00;;;;;;1791725;78;21153;-76
2023/02/10 05:54:34;;;;;;;25.35;21.60;;;33.20;66.70;;;;;;1829135;76;21097;-76
2023/02/10 05:57:06;;;;;;;25.97;21.48;;;33.30;66.70;;;;;;1832006;76;21256;-78
2023/02/10 05:59:37;;;;;;;26.77;21.30;;;33.40;66.40;;;;;;1832286;76;21540;-76
2023/02/10 06:02:08;;;;;;;25.88;19.87;;;33.50;65.50;;;;;;1822277;76;21268;-76
2023/02/10 06:04:44;;;;;;;21.73;19.40;;;33.60;65.40;;;;;;1822401;77;21222;-76
2023/02/10 06:07:16;;;;;;;25.80;21.90;;;33.60;66.00;;;;;;1820497;76;21800;-76
2023/02/10 06:09:48;;;;;;;25.60;19.62;;;33.60;64.40;;;;;;1832342;76;21072;-77
2023/02/10 06:12:20;;;;;;;22.42;20.05;;;33.70;63.60;;;;;;1819720;76;21100;-77
2023/02/10 06:14:52;;;;;;;21.87;19.12;;;33.80;62.50;;;;;;1799684;78;21335;-76
2023/02/10 06:17:24;;;;;;;24.40;20.25;;;33.90;62.70;;;;;;1800280;78;21709;-77
2023/02/10 06:19:55;;;;;;;22.48;19.50;;;34.00;64.60;;;;;;1798636;78;21151;-75
2023/02/10 06:22:26;;;;;;;25.23;20.45;;;34.10;64.40;;;;;;1834511;76;21305;-75
2023/02/10 06:24:59;;;;;;;23.52;20.17;;;34.10;62.90;;;;;;1829236;76;22182;-76
2023/02/10 06:27:32;;;;;;;22.22;18.90;;;34.20;62.90;;;;;;1823813;76;21266;-75
2023/02/10 06:30:04;;;;;;;21.15;18.10;;;34.30;61.90;;;;;;1829098;76;21629;-78
2023/02/10 06:32:35;;;;;;;23.83;18.00;;;34.30;62.90;;;;;;1861333;75;21162;-77
2023/02/10 06:35:07;;;;;;;23.75;18.55;;;34.40;61.50;;;;;;1859578;76;21525;-75
2023/02/10 06:37:38;;;;;;;22.73;19.00;;;34.40;60.70;;;;;;1856687;76;21063;-76
2023/02/10 06:40:11;;;;;;;19.75;17.75;;;34.40;60.90;;;;;;1860755;75;21235;-77
2023/02/10 06:42:42;;;;;;;22.00;18.25;;;34.40;60.70;;;;;;1863720;76;21134;-76
2023/02/10 06:45:14;;;;;;;23.05;18.95;;;34.40;59.90;;;;;;1856520;75;21177;-77
2023/02/10 06:47:46;;;;;;;20.00;17.92;;;34.30;61.30;;;;;;1865417;75;21188;-76
2023/02/10 06:50:20;;;;;;;19.77;17.73;;;34.10;62.30;;;;;;1863467;76;21259;-75
2023/02/10 06:52:52;;;;;;;22.37;19.98;;;34.10;61.90;;;;;;1865305;76;21125;-79
2023/02/10 06:55:23;;;;;;;23.77;19.32;;;34.20;61.80;;;;;;1863208;75;21184;-76
2023/02/10 06:57:54;;;;;;;24.82;19.40;;;34.20;61.20;;;;;;1836802;76;21257;-77
2023/02/10 07:00:25;;;;;;;20.40;18.30;;;34.20;62.00;;;;;;1837175;76;21134;-79
2023/02/10 07:02:57;;;;;;;21.77;19.17;;;34.30;61.50;;;;;;1798242;79;21100;-79
2023/02/10 07:05:29;;;;;;;23.85;20.77;;;34.20;62.40;;;;;;1862618;76;21636;-76
2023/02/10 07:08:02;;;;;;;24.32;20.77;;;34.10;64.00;;;;;;1859656;76;21094;-76
2023/02/10 07:10:33;;;;;;;24.12;21.10;;;34.00;64.20;;;;;;1866994;75;21617;-75
2023/02/10 07:13:04;;;;;;;24.20;21.70;;;33.90;64.30;;;;;;1865006;76;21168;-79
2023/02/10 07:15:38;;;;;;;28.98;22.00;;;33.80;64.30;;;;;;1861600;75;21106;-80
2023/02/10 07:18:09;;;;;;;28.02;22.87;;;33.70;65.40;;;;;;1856414;75;21133;-79
2023/02/10 07:20:39;;;;;;;25.82;22.87;;;33.60;65.80;;;;;;1821968;76;21167;-78
2023/02/10 07:23:10;;;;;;;28.17;22.80;;;33.50;66.10;;;;;;1853091;76;21561;-76
2023/02/10 07:25:41;;;;;;;28.23;24.98;;;33.40;66.70;;;;;;1841042;77;21076;-81
2023/02/10 07:28:12;;;;;;;30.92;23.83;;;33.40;67.40;;;;;;1845386;76;21152;-78
2023/02/10 07:30:43;;;;;;;33.33;23.80;;;33.40;67.80;;;;;;1819728;78;21139;-80
2023/02/10 07:33:15;;;;;;;27.42;24.12;;;33.20;67.30;;;;;;1831380;77;21122;-78
2023/02/10 07:35:49;;;;;;;24.55;22.00;;;33.20;68.10;;;;;;1864231;75;21611;-77
2023/02/10 07:38:21;;;;;;;24.18;21.77;;;33.10;67.90;;;;;;1862208;76;21205;-78
2023/02/10 07:40:52;;;;;;;26.20;23.47;;;33.10;67.30;;;;;;1845562;77;21090;-77
2023/02/10 07:43:24;;;;;;;25.55;22.85;;;33.00;67.50;;;;;;1854998;75;21132;-77
2023/02/10 07:45:55;;;;;;;25.65;22.87;;;32.90;67.90;;;;;;1823337;76;21607;-75
2023/02/10 07:48:26;;;;;;;26.93;23.45;;;33.00;68.30;;;;;;1845121;76;21191;-75
2023/02/10 07:50:58;;;;;;;27.05;23.38;;;32.90;68.40;;;;;;1836990;77;21152;-76
2023/02/10 07:53:31;;;;;;;27.50;24.40;;;32.90;68.60;;;;;;1863072;76;21072;-78
2023/02/10 07:56:02;;;;;;;35.40;27.87;;;32.90;69.40;;;;;;1830323;76;21152;-76
2023/02/10 07:58:33;;;;;;;25.90;23.18;;;32.90;68.30;;;;;;1826683;76;21139;-75
2023/02/10 08:01:08;;;;;;;26.87;23.83;;;33.00;67.60;;;;;;1866071;75;21181;-75
2023/02/10 08:03:44;;;;;;;28.20;25.23;;;33.00;67.60;;;;;;1837631;77;21085;-77
2023/02/10 08:06:21;;;;;;;26.00;22.67;;;33.10;68.20;;;;;;1838765;76;21762;-78
2023/02/10 08:09:11;;;;;;;27.32;22.75;;;33.10;68.20;;;;;;1846928;76;21079;-78
2023/02/10 08:11:45;;;;;;;23.90;19.95;;;33.20;67.60;;;;;;1858287;76;21143;-77
2023/02/10 08:14:17;;;;;;;22.67;20.17;;;33.20;65.70;;;;;;1845937;77;21142;-77
2023/02/10 08:16:50;;;;;;;25.23;20.70;;;33.30;64.50;;;;;;1855582;77;21084;-77
2023/02/10 08:19:21;;;;;;;22.50;19.45;;;33.30;64.70;;;;;;1800479;77;21166;-77
2023/02/10 08:21:52;;;;;;;28.83;20.82;;;33.30;64.70;;;;;;1866080;75;21213;-74
2023/02/10 08:24:24;;;;;;;21.87;18.85;;;33.30;64.70;;;;;;1838211;76;21219;-76
2023/02/10 08:26:55;;;;;;;24.70;18.40;;;33.30;64.20;;;;;;1832882;76;21090;-78
2023/02/10 08:29:27;;;;;;;21.00;17.55;;;33.20;63.00;;;;;;1846336;77;21165;-79
2023/02/10 08:31:59;;;;;;;22.00;19.55;;;33.20;63.60;;;;;;1873080;75;21052;-78
2023/02/10 08:34:31;;;;;;;21.68;18.65;;;33.20;63.50;;;;;;1847994;76;21201;-80
2023/02/10 08:37:05;;;;;;;33.23;19.27;;;33.10;63.90;;;;;;1852702;76;21136;-79
2023/02/10 08:39:34;;;;;;;25.52;20.05;;;33.10;64.20;;;;;;1847596;76;21813;-78
2023/02/10 08:42:05;;;;;;;26.57;21.00;;;33.10;64.50;;;;;;1854643;75;21189;-80
2023/02/10 08:44:37;;;;;;;30.17;20.92;;;33.10;65.40;;;;;;1851432;76;21075;-78
2023/02/10 08:47:11;;;;;;;25.90;20.97;;;33.10;65.70;;;;;;1847802;75;21228;-78
2023/02/10 08:49:41;;;;;;;28.98;22.45;;;33.10;66.20;;;;;;1859974;76;21120;-77
2023/02/10 08:52:12;;;;;;;26.77;21.68;;;33.00;66.40;;;;;;1828593;77;21105;-76
2023/02/10 08:54:44;;;;;;;27.87;22.05;;;33.00;66.10;;;;;;1826179;76;21186;-78
2023/02/10 08:57:15;;;;;;;28.02;21.20;;;33.00;66.40;;;;;;1825391;76;21088;-77
2023/02/10 08:59:46;;;;;;;27.48;21.17;;;32.90;66.80;;;;;;1866974;75;21118;-78
2023/02/10 09:02:17;;;;;;;21.90;19.60;;;32.90;67.00;;;;;;1860440;75;21150;-75
2023/02/10 09:04:49;;;;;;;25.75;20.12;;;32.90;66.70;;;;;;1865360;75;21072;-77
2023/02/10 09:07:23;;;;;;;19.85;17.75;;;32.90;66.40;;;;;;1868015;76;21138;-76
2023/02/10 09:09:54;;;;;;;26.80;20.52;;;32.90;65.10;;;;;;1834600;77;21646;-77
2023/02/10 09:12:25;;;;;;;24.85;19.17;;;32.90;65.40;;;;;;1834621;77;21085;-77
2023/02/10 09:14:57;;;;;;;25.97;19.95;;;32.90;65.60;;;;;;1835621;76;21203;-78
2023/02/10 09:17:29;;;;;;;21.70;18.95;;;32.90;65.60;;;;;;1850179;76;21073;-80
2023/02/10 09:20:01;;;;;;;26.30;19.60;;;32.90;65.70;;;;;;1827741;78;21194;-82
2023/02/10 09:22:33;;;;;;;25.10;20.72;;;32.90;66.10;;;;;;1815108;77;21137;-79
2023/02/10 09:25:05;;;;;;;24.80;20.12;;;32.80;66.20;;;;;;1863877;75;21175;-79
2023/02/10 09:27:37;;;;;;;21.80;19.10;;;32.80;66.70;;;;;;1860899;76;21152;-78
2023/02/10 09:30:08;;;;;;;30.23;23.22;;;32.80;66.20;;;;;;1860423;77;21087;-79
2023/02/10 09:32:41;;;;;;;24.90;19.65;;;32.80;66.90;;;;;;1838059;76;21154;-80
2023/02/10 09:35:13;;;;;;;24.72;21.48;;;32.80;66.50;;;;;;1847442;77;21151;-78
2023/02/10 09:37:45;;;;;;;27.05;20.23;;;32.80;66.70;;;;;;1851461;76;21168;-77
2023/02/10 09:40:20;;;;;;;23.57;20.43;;;32.80;66.60;;;;;;1837497;76;21197;-79
2023/02/10 09:43:25;;;;;;;28.07;21.87;;;32.80;66.70;;;;;;1825729;77;21175;-76
2023/02/10 09:46:04;;;;;;;28.57;21.77;;;32.90;67.20;;;;;;1828523;77;21073;-76
2023/02/10 09:48:50;;;;;;;27.20;21.23;;;32.90;67.10;;;;;;1830677;77;21143;-76
2023/02/10 09:51:56;;;;;;;26.30;20.57;;;32.80;67.20;;;;;;1830105;76;21159;-75
2023/02/10 09:54:31;;;;;;;28.42;21.30;;;32.90;67.00;;;;;;1846476;76;21095;-74
2023/02/10 09:57:06;;;;;;;27.42;19.73;;;32.90;67.20;;;;;;1855119;76;21223;-76
2023/02/10 09:59:42;;;;;;;23.40;19.00;;;32.90;66.70;;;;;;1850470;76;21145;-77
2023/02/10 10:02:37;;;;;;;29.20;19.40;;;32.90;66.70;;;;;;1852063;76;21452;-77
2023/02/10 10:05:15;;;;;;;22.05;18.52;;;32.90;66.70;;;;;;1865466;76;21087;-76
2023/02/10 10:07:49;;;;;;;22.87;19.30;;;32.90;66.10;;;;;;1860860;76;21100;-77
2023/02/10 10:10:34;;;;;;;23.32;19.10;;;32.90;66.10;;;;;;1848280;76;21171;-88
2023/02/10 10:13:06;;;;;;;32.20;20.97;;;32.90;66.60;;;;;;1854904;75;21207;-88
2023/02/10 10:15:40;;;;;;;20.08;18.05;;;32.90;66.70;;;;;;1852379;76;21134;-87
2023/02/10 10:18:23;;;;;;;23.67;19.52;;;32.80;66.50;;;;;;1859666;76;21086;-86
2023/02/10 10:21:04;;;;;;;25.45;20.68;;;32.80;66.20;;;;;;1873887;76;21590;-87
2023/02/10 10:23:49;;;;;;;25.43;19.62;;;32.80;66.70;;;;;;1876009;76;21651;-87
2023/02/10 10:26:27;;;;;;;23.35;19.17;;;32.70;66.80;;;;;;1868581;76;21594;-87
2023/02/10 10:29:20;;;;;;;23.15;19.20;;;32.70;66.90;;;;;;1867703;76;21106;-87
2023/02/10 10:31:56;;;;;;;25.55;20.52;;;32.60;67.10;;;;;;1869661;77;21075;-88
2023/02/10 10:34:30;;;;;;;26.73;20.72;;;32.60;67.30;;;;;;1869068;76;21095;-87
2023/02/10 10:37:01;;;;;;;26.97;20.97;;;32.60;67.40;;;;;;1869072;77;21165;-86
2023/02/10 10:39:41;;;;;;;27.75;20.55;;;32.60;67.30;;;;;;1869198;77;21063;-88
2023/02/10 10:42:41;;;;;;;23.40;20.20;;;32.50;67.30;;;;;;1869051;77;21087;-88
2023/02/10 10:45:17;;;;;;;27.30;21.65;;;32.40;67.40;;;;;;1869197;77;21145;-86
2023/02/10 10:47:59;;;;;;;25.65;20.82;;;32.40;67.30;;;;;;1868988;76;21091;-88
2023/02/10 10:50:30;;;;;;;26.60;21.15;;;32.40;67.20;;;;;;1868592;76;21071;-86
2023/02/10 10:53:04;;;;;;;25.25;21.55;;;32.30;67.40;;;;;;1869189;77;21079;-87
2023/02/10 10:55:43;;;;;;;25.88;20.92;;;32.30;67.80;;;;;;1869069;77;21099;-84
2023/02/10 10:58:22;;;;;;;26.85;21.25;;;32.20;67.80;;;;;;1869080;77;21652;-88
2023/02/10 11:00:55;;;;;;;33.02;21.65;;;32.20;67.90;;;;;;1868960;77;21229;-87
2023/02/10 11:03:27;;;;;;;25.80;20.72;;;32.20;68.30;;;;;;1868865;77;21137;-85
2023/02/10 11:06:12;;;;;;;25.95;19.75;;;32.20;68.10;;;;;;1869287;77;21569;-87
2023/02/10 11:08:45;;;;;;;33.20;20.37;;;32.10;67.90;;;;;;1869053;77;21079;-86
2023/02/10 11:11:17;;;;;;;29.70;21.10;;;32.00;67.80;;;;;;1868853;77;21616;-88
2023/02/10 11:13:55;;;;;;;26.20;20.17;;;32.00;67.90;;;;;;1865890;76;21087;-86
2023/02/10 11:16:25;;;;;;;26.55;20.10;;;32.00;67.90;;;;;;1869046;77;21149;-87
2023/02/10 11:18:58;;;;;;;27.55;20.27;;;32.00;68.10;;;;;;1868996;77;21095;-87
2023/02/10 11:21:38;;;;;;;26.15;20.02;;;31.90;68.00;;;;;;1869231;77;21091;-87
2023/02/10 11:24:28;;;;;;;24.00;20.55;;;31.90;68.10;;;;;;1871235;76;21122;-87
2023/02/10 11:27:07;;;;;;;31.15;22.27;;;31.90;68.20;;;;;;1875000;76;21156;-87
2023/02/10 11:29:40;;;;;;;30.60;22.13;;;31.80;68.20;;;;;;1874724;76;21083;-87
2023/02/10 11:32:23;;;;;;;30.35;22.85;;;31.80;68.60;;;;;;1873722;76;21160;-85
2023/02/10 11:34:56;;;;;;;28.65;23.25;;;31.80;69.00;;;;;;1874586;76;21118;-87
2023/02/10 11:37:40;;;;;;;29.50;23.12;;;31.70;69.20;;;;;;1874821;76;21107;-87
2023/02/10 11:40:22;;;;;;;29.82;23.87;;;31.60;69.40;;;;;;1874612;76;21625;-86
2023/02/10 11:42:56;;;;;;;32.73;24.60;;;31.60;69.80;;;;;;1874906;76;21518;-85
2023/02/10 11:45:29;;;;;;;31.87;25.62;;;31.60;70.30;;;;;;1874489;76;21204;-87
2023/02/10 11:48:17;;;;;;;34.48;24.45;;;31.60;70.60;;;;;;1874983;75;21087;-87
2023/02/10 11:50:51;;;;;;;28.67;23.75;;;31.60;70.60;;;;;;1872809;76;21547;-87
2023/02/10 11:53:26;;;;;;;28.23;23.32;;;31.50;70.90;;;;;;1875451;76;21063;-86
2023/02/10 11:56:05;;;;;;;30.25;23.87;;;31.50;71.30;;;;;;1875167;76;21152;-87
2023/02/10 11:59:03;;;;;;;34.73;23.40;;;31.50;71.30;;;;;;1874643;76;21083;-87
2023/02/10 12:02:00;;;;;;;27.15;24.18;;;31.40;70.90;;;;;;1874702;76;21242;-86
2023/02/10 12:04:53;;;;;;;28.25;24.02;;;31.40;71.50;;;;;;1874530;76;21165;-86
2023/02/10 12:07:36;;;;;;;28.75;23.90;;;31.40;71.70;;;;;;1874790;76;21192;-86
2023/02/10 12:10:21;;;;;;;30.37;24.80;;;31.40;72.00;;;;;;1875146;76;21138;-86
2023/02/10 12:13:13;;;;;;;32.42;25.00;;;31.30;72.30;;;;;;1874224;76;21154;-85
2023/02/10 12:15:50;;;;;;;35.65;25.08;;;31.30;72.50;;;;;;1875444;76;21091;-87
2023/02/10 12:18:38;;;;;;;32.90;25.55;;;31.30;72.80;;;;;;1875088;76;21059;-87
2023/02/10 12:21:28;;;;;;;34.05;24.57;;;31.20;72.80;;;;;;1875076;76;21095;-85
2023/02/10 12:24:30;;;;;;;33.13;23.95;;;31.20;73.00;;;;;;1875011;76;21157;-85
2023/02/10 12:27:21;;;;;;;35.70;24.05;;;31.20;73.00;;;;;;1869565;76;21148;-86
2023/02/10 12:30:13;;;;;;;31.30;23.80;;;31.20;73.50;;;;;;1868740;77;21142;-86
2023/02/10 12:33:01;;;;;;;31.40;24.82;;;31.20;72.80;;;;;;1873316;76;21141;-86
2023/02/10 12:35:47;;;;;;;30.08;23.83;;;31.20;72.90;;;;;;1875278;76;21605;-86
2023/02/10 12:38:50;;;;;;;31.52;24.20;;;31.10;73.00;;;;;;1874353;76;21146;-86
2023/02/10 12:41:34;;;;;;;36.17;25.10;;;31.10;73.20;;;;;;1874727;76;21083;-87
2023/02/10 12:44:21;;;;;;;32.48;25.05;;;31.20;73.30;;;;;;1874939;76;21181;-86
2023/02/10 12:47:08;;;;;;;35.40;24.87;;;31.10;73.20;;;;;;1791748;76;21567;-85
2023/02/10 12:49:54;;;;;;;31.25;24.57;;;31.10;73.20;;;;;;1874922;76;21150;-86
2023/02/10 12:52:30;;;;;;;28.50;24.53;;;31.10;73.30;;;;;;1874084;76;21262;-86
2023/02/10 12:55:09;;;;;;;;;;;31.10;73.30;;;;;;1877159;76;21082;-87
2023/02/10 12:58:06;;;;;;;30.32;23.07;;;31.10;73.50;;;;;;1871862;75;20245;-86
2023/02/10 13:00:42;;;;;;;31.05;23.60;;;31.10;74.00;;;;;;1852079;77;21085;-87
2023/02/10 13:03:27;;;;;;;30.17;23.42;;;31.10;74.10;;;;;;1809308;79;21195;-86
2023/02/10 13:06:19;;;;;;;30.30;24.83;;;31.00;74.10;;;;;;1859264;76;21097;-86
2023/02/10 13:09:04;;;;;;;46.92;26.37;;;31.00;74.20;;;;;;1850112;77;21087;-86
2023/02/10 13:11:43;;;;;;;41.88;25.48;;;30.90;74.30;;;;;;1837755;78;21075;-86